Time;durP1;ratioP1;P1;durP2;ratioP2;P2;SDS_P1;SDS_P2;PMS_P1;PMS_P2;Temp;Humidity;BMP_temperature;BMP_pressure;BME280_temperature;BME280_humidity;BME280_pressure;Samples;Min_cycle;Max_cycle;Signal;HPM_P1;HPM_P2
2021/12/01 00:00:26;;;;;;;3.07;2.77;;;0.60;80.90;;;;;;5052899;28;20207;-74
2021/12/01 00:02:53;;;;;;;4.87;3.37;;;0.40;81.50;;;;;;5058129;28;20222;-74
2021/12/01 00:05:21;;;;;;;3.87;2.27;;;0.30;82.10;;;;;;5049468;28;20203;-74
2021/12/01 00:07:48;;;;;;;17.13;2.30;;;0.10;82.60;;;;;;5050018;28;20312;-74
2021/12/01 00:10:15;;;;;;;5.07;2.03;;;0.00;82.30;;;;;;5049248;28;20175;-74
2021/12/01 00:12:40;;;;;;;8.53;2.03;;;-0.10;82.40;;;;;;5047433;28;20657;-74
2021/12/01 00:15:07;;;;;;;2.77;2.10;;;-0.20;82.60;;;;;;5056822;28;20193;-74
2021/12/01 00:17:33;;;;;;;2.10;1.47;;;-0.30;82.90;;;;;;5055219;28;20175;-74
2021/12/01 00:19:59;;;;;;;1.67;1.53;;;-0.50;83.60;;;;;;5052625;28;20707;-74
2021/12/01 00:22:26;;;;;;;3.23;2.10;;;-0.60;83.90;;;;;;5049117;28;20699;-74
2021/12/01 00:24:53;;;;;;;2.17;1.77;;;-0.80;84.50;;;;;;5047523;28;20195;-74
2021/12/01 00:27:19;;;;;;;5.63;1.80;;;-0.80;84.90;;;;;;5047341;28;20672;-74
2021/12/01 00:29:45;;;;;;;5.50;2.20;;;-0.80;84.90;;;;;;5054301;28;20176;-74
2021/12/01 00:32:11;;;;;;;2.20;1.73;;;-1.00;85.40;;;;;;5044757;28;20180;-74
2021/12/01 00:34:36;;;;;;;5.83;2.47;;;-1.10;85.90;;;;;;5051906;28;20244;-73
2021/12/01 00:37:02;;;;;;;5.43;2.20;;;-1.20;86.00;;;;;;5053338;28;20192;-73
2021/12/01 00:39:28;;;;;;;1.43;1.43;;;-1.30;86.20;;;;;;5056698;28;20564;-73
2021/12/01 00:41:56;;;;;;;1.80;1.70;;;-1.30;86.30;;;;;;5051711;28;20589;-73
2021/12/01 00:44:22;;;;;;;1.87;1.77;;;-1.30;86.30;;;;;;5052881;28;20175;-74
2021/12/01 00:49:34;;;;;;;1.90;1.80;;;-1.40;86.90;;;;;;5056831;28;20250;-73
2021/12/01 00:52:01;;;;;;;1.77;1.73;;;-1.50;87.10;;;;;;5051567;28;20250;-73
2021/12/01 00:54:26;;;;;;;4.83;1.60;;;-1.50;87.20;;;;;;5045963;28;20194;-73
2021/12/01 00:56:52;;;;;;;3.90;1.50;;;-1.60;87.40;;;;;;5058214;28;20179;-73
2021/12/01 00:59:18;;;;;;;4.60;1.60;;;-1.70;87.80;;;;;;5045235;28;20202;-73
2021/12/01 01:01:45;;;;;;;1.30;1.30;;;-1.70;87.90;;;;;;5048974;28;20220;-73
2021/12/01 01:04:11;;;;;;;2.23;1.87;;;-1.70;88.30;;;;;;5051147;28;20182;-74
2021/12/01 01:06:37;;;;;;;3.97;1.63;;;-1.70;88.40;;;;;;5047404;28;20222;-74
2021/12/01 01:09:05;;;;;;;1.80;1.70;;;-1.70;88.30;;;;;;5049903;28;20670;-74
2021/12/01 01:17:06;;;;;;;2.07;1.37;;;-1.80;88.60;;;;;;5047722;28;20240;-74
2021/12/01 01:19:32;;;;;;;1.43;1.33;;;-1.90;88.50;;;;;;5055413;28;20595;-74
2021/12/01 01:22:00;;;;;;;3.87;1.90;;;-1.90;88.50;;;;;;5045738;28;20245;-74
2021/12/01 01:24:25;;;;;;;2.00;1.87;;;-1.90;88.80;;;;;;5052873;28;20286;-74
2021/12/01 01:26:51;;;;;;;1.67;1.57;;;-1.90;89.20;;;;;;5052320;28;20240;-74
2021/12/01 01:29:21;;;;;;;2.37;2.27;;;-1.90;89.40;;;;;;5053047;28;20690;-74
2021/12/01 01:31:50;;;;;;;1.20;1.20;;;-1.80;89.30;;;;;;5054144;28;20299;-73
2021/12/01 01:34:16;;;;;;;2.73;2.47;;;-1.80;89.50;;;;;;5053108;28;20740;-74
2021/12/01 01:36:41;;;;;;;4.67;1.63;;;-1.80;89.50;;;;;;5050167;28;20268;-74
2021/12/01 01:39:07;;;;;;;1.97;1.87;;;-1.90;89.50;;;;;;5048394;28;20664;-74
2021/12/01 01:41:33;;;;;;;1.43;1.33;;;-1.90;89.40;;;;;;5044438;28;20183;-74
2021/12/01 01:43:59;;;;;;;1.67;1.53;;;-1.90;89.50;;;;;;5054568;28;20181;-74
2021/12/01 01:46:34;;;;;;;1.53;1.43;;;-1.90;89.60;;;;;;5041707;28;20299;-74
2021/12/01 01:49:07;;;;;;;1.97;1.80;;;-1.90;89.80;;;;;;5057524;28;20174;-73
2021/12/01 01:51:34;;;;;;;7.17;1.40;;;-1.90;90.10;;;;;;5047284;28;20194;-74
2021/12/01 01:54:00;;;;;;;1.60;1.50;;;-1.90;90.30;;;;;;5055881;28;20183;-74
2021/12/01 01:56:26;;;;;;;1.23;1.17;;;-1.90;89.90;;;;;;5048367;28;20195;-74
2021/12/01 01:58:54;;;;;;;2.30;1.40;;;-2.00;90.10;;;;;;5051642;28;20202;-74
2021/12/01 02:01:43;;;;;;;1.10;1.10;;;-2.00;90.40;;;;;;5042465;28;20207;-74
2021/12/01 02:04:10;;;;;;;1.37;0.83;;;-2.00;90.10;;;;;;5051149;28;20204;-74
2021/12/01 02:06:36;;;;;;;1.37;0.93;;;-2.00;90.40;;;;;;5050333;28;20625;-74
2021/12/01 02:09:02;;;;;;;5.07;1.73;;;-2.00;90.60;;;;;;5054867;28;20179;-74
2021/12/01 02:11:29;;;;;;;0.50;0.50;;;-2.00;90.70;;;;;;5049492;28;20211;-74
2021/12/01 02:13:55;;;;;;;1.17;1.07;;;-2.10;90.70;;;;;;5049300;28;20657;-74
2021/12/01 02:16:22;;;;;;;1.40;1.03;;;-2.00;90.80;;;;;;5044111;28;20261;-74
2021/12/01 02:18:48;;;;;;;3.80;2.00;;;-2.00;90.40;;;;;;5045679;28;20549;-74
2021/12/01 02:21:28;;;;;;;0.80;0.80;;;-2.00;90.60;;;;;;5056329;28;20191;-74
2021/12/01 02:23:59;;;;;;;1.27;1.20;;;-1.80;90.50;;;;;;5048755;28;20215;-74
2021/12/01 02:26:26;;;;;;;1.40;1.20;;;-1.80;90.60;;;;;;5051256;28;20225;-74
2021/12/01 02:28:55;;;;;;;1.20;1.20;;;-1.70;90.50;;;;;;5047789;28;20178;-74
2021/12/01 02:31:25;;;;;;;1.13;1.13;;;-1.60;90.20;;;;;;5049567;28;20179;-74
2021/12/01 02:33:52;;;;;;;1.13;1.13;;;-1.60;90.10;;;;;;5044858;28;20668;-74
2021/12/01 02:36:18;;;;;;;1.50;1.40;;;-1.50;89.90;;;;;;5047372;28;20956;-74
2021/12/01 02:38:46;;;;;;;7.77;1.43;;;-1.50;89.70;;;;;;5053308;28;20262;-74
2021/12/01 02:41:13;;;;;;;1.00;1.00;;;-1.40;89.70;;;;;;5047916;28;20190;-74
2021/12/01 02:43:40;;;;;;;1.20;1.17;;;-1.40;89.70;;;;;;5054323;28;20251;-74
2021/12/01 02:46:05;;;;;;;2.40;1.77;;;-1.40;89.60;;;;;;5044399;28;20220;-74
2021/12/01 02:48:35;;;;;;;1.47;1.37;;;-1.40;89.40;;;;;;5046820;28;20184;-76
2021/12/01 02:51:04;;;;;;;1.30;1.13;;;-1.40;89.20;;;;;;5057593;28;20298;-74
2021/12/01 02:53:30;;;;;;;0.87;0.87;;;-1.40;89.40;;;;;;5043310;28;20689;-74
2021/12/01 02:56:01;;;;;;;3.93;0.90;;;-1.30;89.50;;;;;;5050344;28;20221;-74
2021/12/01 02:58:33;;;;;;;0.90;0.90;;;-1.40;89.20;;;;;;5049545;28;20192;-73
2021/12/01 03:01:04;;;;;;;1.00;1.00;;;-1.30;89.50;;;;;;5045353;28;20214;-75
2021/12/01 03:03:31;;;;;;;0.80;0.80;;;-1.30;89.20;;;;;;5047857;28;20612;-74
2021/12/01 03:06:00;;;;;;;1.00;1.00;;;-1.30;89.40;;;;;;5050626;28;20322;-74
2021/12/01 03:08:25;;;;;;;1.37;0.67;;;-1.20;89.40;;;;;;5050991;28;20207;-74
2021/12/01 03:10:53;;;;;;;1.00;0.83;;;-1.30;89.20;;;;;;5050380;28;20845;-74
2021/12/01 03:13:20;;;;;;;0.97;0.90;;;-1.30;89.10;;;;;;5049127;28;20179;-74
2021/12/01 03:15:47;;;;;;;0.60;0.60;;;-1.30;89.40;;;;;;5044817;28;20188;-74
2021/12/01 03:18:14;;;;;;;1.10;1.10;;;-1.20;89.50;;;;;;5052504;28;20184;-74
2021/12/01 03:20:40;;;;;;;3.50;1.10;;;-1.20;89.70;;;;;;5047161;28;20581;-74
2021/12/01 03:23:06;;;;;;;2.43;0.83;;;-1.20;89.50;;;;;;5046967;28;20187;-74
2021/12/01 03:25:33;;;;;;;1.00;1.00;;;-1.20;89.70;;;;;;5051366;28;20221;-74
2021/12/01 03:27:59;;;;;;;1.30;1.20;;;-1.20;89.70;;;;;;5051268;28;20237;-74
2021/12/01 03:30:27;;;;;;;2.00;1.23;;;-1.20;89.70;;;;;;5048172;28;20187;-74
2021/12/01 03:32:53;;;;;;;1.13;1.13;;;-1.20;89.80;;;;;;5047215;28;20249;-74
2021/12/01 03:35:19;;;;;;;0.93;0.93;;;-1.20;89.80;;;;;;5051201;28;20183;-74
2021/12/01 03:37:46;;;;;;;1.73;0.90;;;-1.30;89.80;;;;;;5053697;28;20175;-74
2021/12/01 03:40:13;;;;;;;0.73;0.73;;;-1.30;90.00;;;;;;5056378;28;20183;-74
2021/12/01 03:42:40;;;;;;;1.20;1.03;;;-1.30;90.40;;;;;;5055872;28;20890;-74
2021/12/01 03:45:07;;;;;;;0.87;0.87;;;-1.30;90.50;;;;;;5053560;28;20224;-74
2021/12/01 03:47:33;;;;;;;0.80;0.80;;;-1.30;90.50;;;;;;5044021;28;20253;-74
2021/12/01 03:49:59;;;;;;;1.50;1.10;;;-1.20;90.60;;;;;;5053728;28;20578;-74
2021/12/01 03:52:24;;;;;;;0.97;0.70;;;-1.20;90.60;;;;;;5057732;28;20287;-74
2021/12/01 03:54:51;;;;;;;0.90;0.70;;;-1.20;90.40;;;;;;5054076;28;20767;-74
2021/12/01 03:57:18;;;;;;;0.77;0.67;;;-1.10;90.30;;;;;;5052154;28;20188;-74
2021/12/01 03:59:44;;;;;;;1.63;0.80;;;-1.00;90.20;;;;;;5048945;28;20214;-74
2021/12/01 04:02:10;;;;;;;1.37;1.27;;;-1.00;90.00;;;;;;5054045;28;20789;-74
2021/12/01 04:04:36;;;;;;;0.90;0.40;;;-0.90;89.80;;;;;;5060096;28;20293;-74
2021/12/01 04:07:02;;;;;;;1.53;0.60;;;-0.70;88.60;;;;;;5043430;28;20233;-74
2021/12/01 04:09:29;;;;;;;0.67;0.63;;;-0.60;88.60;;;;;;5053449;28;20183;-74
2021/12/01 04:11:55;;;;;;;0.90;0.90;;;-0.40;88.60;;;;;;5054754;28;20286;-74
2021/12/01 04:14:20;;;;;;;0.57;0.57;;;-0.30;88.60;;;;;;5052479;28;20204;-75
2021/12/01 04:16:46;;;;;;;0.50;0.50;;;-0.20;88.40;;;;;;5051116;28;20198;-74
2021/12/01 04:19:12;;;;;;;0.60;0.60;;;-0.10;88.10;;;;;;5056490;28;20184;-74
2021/12/01 04:21:39;;;;;;;0.30;0.30;;;-0.10;87.80;;;;;;5051598;28;20183;-74
2021/12/01 04:24:06;;;;;;;0.67;0.67;;;-0.10;87.80;;;;;;5054840;28;20186;-74
2021/12/01 04:26:33;;;;;;;1.93;1.00;;;-0.10;88.00;;;;;;5051734;28;20352;-74
2021/12/01 04:29:00;;;;;;;0.93;0.93;;;-0.10;88.10;;;;;;5053392;28;20182;-74
2021/12/01 04:31:28;;;;;;;0.80;0.80;;;-0.10;88.20;;;;;;5053091;28;20180;-74
2021/12/01 04:33:55;;;;;;;2.30;1.10;;;-0.20;88.10;;;;;;5053932;28;20192;-74
2021/12/01 04:36:21;;;;;;;1.13;1.00;;;-0.30;88.20;;;;;;5047035;28;20191;-74
2021/12/01 04:38:47;;;;;;;1.43;1.00;;;-0.30;88.40;;;;;;5059919;28;20218;-73
2021/12/01 04:41:14;;;;;;;0.90;0.90;;;-0.40;88.50;;;;;;5046845;28;20207;-73
2021/12/01 04:43:40;;;;;;;0.83;0.83;;;-0.40;88.50;;;;;;5045846;28;20215;-74
2021/12/01 04:46:06;;;;;;;1.03;1.03;;;-0.40;88.70;;;;;;5054109;28;20223;-73
2021/12/01 04:48:33;;;;;;;1.70;0.77;;;-0.40;88.80;;;;;;5049556;28;20191;-73
2021/12/01 04:50:59;;;;;;;0.80;0.80;;;-0.40;88.90;;;;;;5050956;28;20195;-73
2021/12/01 04:53:26;;;;;;;1.07;1.00;;;-0.40;88.90;;;;;;5048174;28;20279;-73
2021/12/01 04:55:53;;;;;;;1.07;0.87;;;-0.40;88.90;;;;;;5051599;28;20571;-73
2021/12/01 04:58:20;;;;;;;0.70;0.70;;;-0.30;89.00;;;;;;5060059;28;20186;-74
2021/12/01 05:00:46;;;;;;;0.73;0.73;;;-0.30;89.20;;;;;;5044632;28;20187;-73
2021/12/01 05:03:12;;;;;;;0.60;0.60;;;-0.30;89.00;;;;;;5053745;28;20189;-74
2021/12/01 05:05:38;;;;;;;1.57;0.60;;;-0.20;88.80;;;;;;5049352;28;20286;-74
2021/12/01 05:08:04;;;;;;;0.67;0.60;;;-0.20;88.80;;;;;;5056569;28;20240;-74
2021/12/01 05:10:30;;;;;;;4.20;1.00;;;-0.10;88.80;;;;;;5051297;28;20307;-74
2021/12/01 05:12:56;;;;;;;0.60;0.60;;;-0.10;88.70;;;;;;5050323;28;20265;-74
2021/12/01 05:15:22;;;;;;;2.37;1.30;;;-0.10;88.60;;;;;;5048985;28;20207;-73
2021/12/01 05:17:49;;;;;;;4.93;1.00;;;0.00;88.50;;;;;;5046376;28;20183;-73
2021/12/01 05:20:16;;;;;;;0.60;0.60;;;0.00;88.50;;;;;;5049482;28;20207;-73
2021/12/01 05:22:43;;;;;;;1.00;0.97;;;0.00;88.30;;;;;;5046572;28;20280;-74
2021/12/01 05:25:08;;;;;;;0.70;0.70;;;0.10;88.30;;;;;;5058059;28;20595;-74
2021/12/01 05:27:34;;;;;;;0.67;0.67;;;0.10;88.30;;;;;;5050783;28;20198;-73
2021/12/01 05:30:00;;;;;;;0.90;0.90;;;0.10;88.20;;;;;;5048271;28;20687;-73
2021/12/01 05:32:26;;;;;;;0.83;0.50;;;0.20;88.20;;;;;;5046665;28;20187;-73
2021/12/01 05:34:52;;;;;;;0.70;0.70;;;0.20;88.20;;;;;;5048835;28;21118;-74
2021/12/01 05:37:18;;;;;;;0.73;0.73;;;0.30;88.00;;;;;;5033843;28;20179;-75
2021/12/01 05:39:45;;;;;;;1.33;0.80;;;0.40;88.10;;;;;;5056078;28;20182;-73
2021/12/01 05:42:12;;;;;;;1.47;1.03;;;0.50;87.70;;;;;;5052097;28;20175;-74
2021/12/01 05:44:40;;;;;;;0.80;0.80;;;0.60;87.30;;;;;;5050562;28;20251;-75
2021/12/01 05:47:06;;;;;;;0.70;0.70;;;0.60;87.10;;;;;;5049349;28;20218;-74
2021/12/01 05:49:33;;;;;;;0.70;0.70;;;0.70;87.10;;;;;;5055512;28;20195;-75
2021/12/01 05:51:59;;;;;;;1.80;1.47;;;0.60;87.10;;;;;;5055074;28;20184;-73
2021/12/01 05:54:25;;;;;;;5.37;1.00;;;0.70;87.20;;;;;;5044274;28;20180;-74
2021/12/01 05:56:51;;;;;;;0.90;0.90;;;0.70;87.30;;;;;;5047421;28;20593;-73
2021/12/01 05:59:17;;;;;;;1.33;1.23;;;0.70;87.40;;;;;;5047648;28;20195;-73
2021/12/01 06:01:43;;;;;;;4.47;1.13;;;0.80;87.50;;;;;;5050066;28;20193;-73
2021/12/01 06:04:08;;;;;;;0.93;0.93;;;0.90;87.70;;;;;;5049250;28;20231;-73
2021/12/01 06:06:34;;;;;;;0.97;0.40;;;1.00;87.60;;;;;;5048339;28;20219;-73
2021/12/01 06:09:00;;;;;;;0.20;0.20;;;1.20;87.20;;;;;;5047837;28;20281;-73
2021/12/01 06:11:26;;;;;;;0.57;0.30;;;1.50;86.70;;;;;;5045723;28;20256;-74
2021/12/01 06:13:53;;;;;;;0.20;0.20;;;1.80;86.30;;;;;;5047557;28;20178;-73
2021/12/01 06:16:23;;;;;;;0.20;0.20;;;2.10;85.70;;;;;;5048932;28;20187;-74
2021/12/01 06:18:49;;;;;;;0.20;0.20;;;2.40;84.50;;;;;;5047254;28;20233;-73
2021/12/01 06:21:16;;;;;;;1.50;0.40;;;2.70;83.30;;;;;;5045946;28;20793;-73
2021/12/01 06:23:41;;;;;;;0.20;0.20;;;3.00;82.20;;;;;;5047964;28;20186;-75
2021/12/01 06:26:07;;;;;;;0.30;0.30;;;3.20;82.60;;;;;;5047560;28;20203;-75
2021/12/01 06:28:33;;;;;;;3.70;0.30;;;3.30;82.80;;;;;;5043690;28;20180;-74
2021/12/01 06:30:58;;;;;;;1.20;1.20;;;3.40;82.20;;;;;;5045824;28;20172;-74
2021/12/01 06:33:24;;;;;;;2.13;2.00;;;3.50;82.20;;;;;;5043072;28;20192;-73
2021/12/01 06:35:51;;;;;;;2.80;2.07;;;3.50;81.10;;;;;;5045810;28;20184;-75
2021/12/01 06:38:18;;;;;;;2.73;2.63;;;3.40;79.80;;;;;;5045825;28;20195;-74
2021/12/01 06:40:45;;;;;;;2.80;2.60;;;3.10;79.50;;;;;;5045437;28;20242;-73
2021/12/01 06:43:11;;;;;;;5.73;2.90;;;2.90;80.50;;;;;;5047292;28;20184;-74
2021/12/01 06:45:36;;;;;;;2.67;2.47;;;2.70;80.80;;;;;;5045606;28;20208;-73
2021/12/01 06:48:02;;;;;;;3.10;2.33;;;2.40;80.40;;;;;;5048911;28;20221;-74
2021/12/01 06:50:28;;;;;;;2.37;2.17;;;2.30;81.50;;;;;;5052793;28;20187;-75
2021/12/01 06:52:54;;;;;;;3.30;3.10;;;2.40;82.60;;;;;;5046943;28;20184;-75
2021/12/01 06:55:21;;;;;;;3.47;2.87;;;2.60;83.10;;;;;;5044546;28;20186;-76
2021/12/01 06:57:47;;;;;;;2.93;2.63;;;2.80;82.90;;;;;;5046847;28;20207;-76
2021/12/01 07:00:15;;;;;;;3.13;2.97;;;2.90;82.40;;;;;;5051565;28;20266;-75
2021/12/01 07:02:41;;;;;;;3.23;2.60;;;3.00;81.90;;;;;;5050579;28;20225;-74
2021/12/01 07:05:08;;;;;;;3.50;3.20;;;2.90;80.90;;;;;;5049335;28;20209;-74
2021/12/01 07:07:33;;;;;;;4.00;3.17;;;3.00;80.50;;;;;;5053974;28;20249;-74
2021/12/01 07:10:00;;;;;;;3.40;3.10;;;3.20;81.50;;;;;;5052783;28;20215;-74
2021/12/01 07:12:26;;;;;;;4.93;3.20;;;3.70;82.40;;;;;;5054462;28;20183;-73
2021/12/01 07:14:51;;;;;;;2.90;2.70;;;4.10;81.30;;;;;;5056676;28;20182;-74
2021/12/01 07:17:17;;;;;;;4.47;3.63;;;4.70;80.80;;;;;;5056891;28;20843;-74
2021/12/01 07:19:43;;;;;;;6.30;3.20;;;5.30;81.30;;;;;;5050594;28;20175;-73
2021/12/01 07:22:09;;;;;;;4.20;3.70;;;5.80;78.10;;;;;;5054652;28;20184;-75
2021/12/01 07:24:35;;;;;;;3.37;3.07;;;6.30;75.90;;;;;;5053983;28;20191;-75
2021/12/01 07:27:01;;;;;;;4.83;4.30;;;6.60;75.40;;;;;;5049139;28;20705;-74
2021/12/01 07:29:26;;;;;;;3.03;2.80;;;6.80;75.00;;;;;;5054445;28;20183;-75
2021/12/01 07:31:53;;;;;;;2.63;2.43;;;6.70;73.40;;;;;;5049373;28;20211;-75
2021/12/01 07:34:19;;;;;;;3.77;3.47;;;6.50;73.40;;;;;;5046774;28;20639;-76
2021/12/01 07:36:45;;;;;;;4.97;3.67;;;6.30;73.60;;;;;;5051053;28;20215;-76
2021/12/01 07:39:11;;;;;;;4.27;3.13;;;6.10;74.40;;;;;;5054207;28;20185;-76
2021/12/01 07:41:36;;;;;;;3.60;3.30;;;5.80;73.30;;;;;;5049537;28;20185;-77
2021/12/01 07:44:02;;;;;;;3.10;2.90;;;5.80;74.60;;;;;;5047272;28;20180;-75
2021/12/01 07:46:28;;;;;;;4.40;2.80;;;5.80;74.90;;;;;;5048677;28;20294;-75
2021/12/01 07:48:53;;;;;;;4.33;3.27;;;5.70;75.10;;;;;;5049987;28;20185;-76
2021/12/01 07:51:19;;;;;;;3.60;3.37;;;5.70;75.30;;;;;;5041818;28;20725;-75
2021/12/01 07:53:45;;;;;;;7.57;4.53;;;5.60;75.70;;;;;;5053344;28;20178;-75
2021/12/01 07:56:12;;;;;;;3.40;3.10;;;5.50;75.80;;;;;;5048876;28;20192;-74
2021/12/01 07:58:38;;;;;;;4.67;3.73;;;5.20;75.10;;;;;;5049749;28;20195;-73
2021/12/01 08:01:03;;;;;;;3.83;3.47;;;5.10;76.00;;;;;;5048201;28;20197;-74
2021/12/01 08:03:29;;;;;;;3.90;3.27;;;4.90;76.20;;;;;;5048084;28;20195;-73
2021/12/01 08:05:55;;;;;;;2.90;2.67;;;4.70;75.70;;;;;;5046192;28;20292;-74
2021/12/01 08:08:21;;;;;;;2.73;2.53;;;4.70;76.60;;;;;;5051985;28;20302;-73
2021/12/01 08:10:46;;;;;;;2.63;2.43;;;4.60;76.90;;;;;;5051819;28;20254;-75
2021/12/01 08:13:12;;;;;;;3.50;2.63;;;4.60;76.60;;;;;;5058030;28;20286;-75
2021/12/01 08:15:38;;;;;;;3.10;2.90;;;4.80;77.50;;;;;;5051501;28;20590;-74
2021/12/01 08:18:04;;;;;;;3.70;3.40;;;4.90;77.20;;;;;;5052716;28;20175;-74
2021/12/01 08:20:30;;;;;;;3.37;3.00;;;5.00;77.60;;;;;;5050001;28;20703;-74
2021/12/01 08:22:55;;;;;;;2.80;2.60;;;5.10;77.70;;;;;;5052717;28;20224;-74
2021/12/01 08:25:22;;;;;;;4.60;3.70;;;5.10;77.30;;;;;;5047406;28;20290;-74
2021/12/01 08:27:48;;;;;;;4.00;3.30;;;5.10;76.50;;;;;;5054759;28;20172;-74
2021/12/01 08:30:15;;;;;;;3.33;3.03;;;5.10;77.00;;;;;;5050947;28;20234;-74
2021/12/01 08:32:45;;;;;;;4.23;2.90;;;5.20;77.40;;;;;;5051053;28;20273;-74
2021/12/01 08:35:13;;;;;;;4.57;3.50;;;5.30;77.50;;;;;;5059693;28;20660;-74
2021/12/01 08:37:39;;;;;;;5.10;4.07;;;5.40;76.60;;;;;;5054816;28;20190;-74
2021/12/01 08:40:05;;;;;;;4.53;3.40;;;5.60;77.10;;;;;;5051015;28;20180;-73
2021/12/01 08:42:33;;;;;;;4.73;3.00;;;5.90;77.50;;;;;;5051091;28;20237;-74
2021/12/01 08:44:59;;;;;;;3.00;2.80;;;6.20;76.60;;;;;;5051789;28;21040;-74
2021/12/01 08:47:25;;;;;;;3.47;2.97;;;6.70;77.60;;;;;;5056516;28;20223;-74
2021/12/01 08:49:52;;;;;;;3.97;3.60;;;7.20;76.60;;;;;;5050294;28;20171;-74
2021/12/01 08:52:17;;;;;;;3.37;3.23;;;7.90;75.60;;;;;;5058961;28;20197;-74
2021/12/01 08:54:43;;;;;;;15.40;4.10;;;8.40;74.70;;;;;;5055529;28;20669;-74
2021/12/01 08:57:09;;;;;;;4.77;3.87;;;8.70;73.00;;;;;;5055187;28;20258;-75
2021/12/01 08:59:36;;;;;;;6.00;3.83;;;8.90;72.30;;;;;;5051988;28;20256;-74
2021/12/01 09:02:02;;;;;;;3.67;3.37;;;9.20;72.20;;;;;;5049849;28;20184;-74
2021/12/01 09:04:28;;;;;;;3.57;3.27;;;9.50;72.10;;;;;;5053712;28;20183;-74
2021/12/01 09:06:54;;;;;;;4.87;3.90;;;9.90;71.60;;;;;;5058799;28;20206;-74
2021/12/01 09:09:20;;;;;;;4.00;3.70;;;10.30;70.20;;;;;;5049321;28;20176;-74
2021/12/01 09:11:48;;;;;;;5.70;3.67;;;10.40;69.40;;;;;;5054205;28;20244;-74
2021/12/01 09:14:14;;;;;;;4.20;3.77;;;10.40;69.10;;;;;;5057900;28;20705;-74
2021/12/01 09:16:41;;;;;;;5.78;3.75;;;10.50;68.30;;;;;;5060411;28;20175;-74
2021/12/01 09:19:07;;;;;;;3.93;3.57;;;10.30;67.20;;;;;;5052867;28;20673;-74
2021/12/01 09:21:33;;;;;;;3.97;3.17;;;10.00;67.60;;;;;;5052319;28;20237;-75
2021/12/01 09:23:59;;;;;;;6.65;4.00;;;9.80;68.70;;;;;;5049728;28;20258;-74
2021/12/01 09:26:24;;;;;;;4.38;3.97;;;10.20;69.90;;;;;;5055338;28;20215;-74
2021/12/01 09:28:50;;;;;;;7.57;4.38;;;10.70;69.40;;;;;;5053035;28;20176;-74
2021/12/01 09:31:16;;;;;;;3.95;3.72;;;11.00;67.50;;;;;;5050046;28;20176;-74
2021/12/01 09:33:42;;;;;;;6.95;4.32;;;11.30;68.30;;;;;;5051568;28;20711;-74
2021/12/01 09:36:08;;;;;;;4.72;4.03;;;11.90;68.40;;;;;;5053106;28;20182;-74
2021/12/01 09:38:33;;;;;;;4.93;4.57;;;12.60;68.00;;;;;;5054371;28;20187;-74
2021/12/01 09:40:59;;;;;;;5.57;4.45;;;13.20;65.90;;;;;;5053194;28;20654;-72
2021/12/01 09:43:29;;;;;;;5.30;4.80;;;13.60;63.80;;;;;;5053145;28;20266;-73
2021/12/01 09:45:58;;;;;;;7.85;5.43;;;13.70;62.80;;;;;;5053228;28;20210;-72
2021/12/01 09:48:24;;;;;;;6.93;5.55;;;13.80;62.80;;;;;;5045106;28;20906;-74
2021/12/01 09:50:51;;;;;;;5.00;4.50;;;14.10;63.50;;;;;;5052584;28;20250;-73
2021/12/01 09:53:16;;;;;;;5.40;4.80;;;14.30;62.30;;;;;;5052528;28;20224;-72
2021/12/01 09:55:43;;;;;;;7.20;5.35;;;14.70;62.90;;;;;;5056221;28;20187;-75
2021/12/01 09:58:13;;;;;;;10.88;6.07;;;15.20;62.10;;;;;;5057205;28;20195;-73
2021/12/01 10:00:45;;;;;;;6.65;5.60;;;15.50;60.80;;;;;;5049771;28;20180;-75
2021/12/01 10:03:11;;;;;;;6.85;5.65;;;15.80;60.20;;;;;;5051306;28;20175;-76
2021/12/01 10:05:59;;;;;;;8.82;5.65;;;15.80;59.30;;;;;;5049729;28;20280;-74
2021/12/01 10:08:31;;;;;;;9.50;6.22;;;15.70;59.40;;;;;;5052214;28;20274;-73
2021/12/01 10:10:57;;;;;;;7.40;6.03;;;15.70;60.40;;;;;;5052388;28;20199;-73
2021/12/01 10:13:32;;;;;;;7.03;6.18;;;16.00;59.80;;;;;;5050999;28;20974;-73
2021/12/01 10:16:01;;;;;;;12.77;5.80;;;16.20;60.00;;;;;;5057048;28;20630;-73
2021/12/01 10:18:29;;;;;;;6.45;5.82;;;16.60;59.70;;;;;;5049887;28;20186;-72
2021/12/01 10:21:02;;;;;;;7.65;6.20;;;17.10;60.10;;;;;;5053183;28;20585;-73
2021/12/01 10:23:28;;;;;;;8.57;6.15;;;17.70;59.70;;;;;;5053678;28;20562;-74
2021/12/01 10:25:54;;;;;;;8.70;6.82;;;18.20;57.60;;;;;;5047672;28;20203;-74
2021/12/01 10:28:48;;;;;;;8.23;6.63;;;18.70;57.60;;;;;;5049064;28;20175;-73
2021/12/01 10:31:15;;;;;;;7.40;5.80;;;19.10;56.40;;;;;;5056535;28;20197;-73
2021/12/01 10:33:42;;;;;;;12.05;5.47;;;19.50;56.80;;;;;;5055572;28;20183;-74
2021/12/01 10:36:09;;;;;;;6.95;6.00;;;19.80;55.50;;;;;;5055449;28;20190;-74
2021/12/01 10:38:39;;;;;;;5.75;5.15;;;19.70;54.90;;;;;;5054546;28;20244;-72
2021/12/01 10:41:10;;;;;;;7.57;5.88;;;19.70;56.20;;;;;;5055332;28;20203;-73
2021/12/01 10:43:48;;;;;;;5.68;4.40;;;19.70;55.30;;;;;;5057173;28;20214;-72
2021/12/01 10:46:18;;;;;;;6.50;4.65;;;19.70;55.00;;;;;;5049294;28;20589;-72
2021/12/01 10:49:01;;;;;;;4.20;3.90;;;19.80;55.50;;;;;;5053714;28;20172;-75
2021/12/01 10:51:36;;;;;;;3.20;3.00;;;19.60;54.10;;;;;;5055475;28;20268;-73
2021/12/01 10:54:02;;;;;;;3.80;3.42;;;19.60;55.40;;;;;;5053236;28;20236;-73
2021/12/01 10:56:28;;;;;;;3.88;3.55;;;19.60;54.50;;;;;;5060750;28;20183;-73
2021/12/01 10:58:54;;;;;;;3.78;3.47;;;19.60;54.60;;;;;;5051394;28;20201;-73
2021/12/01 11:01:25;;;;;;;3.97;3.33;;;19.60;55.60;;;;;;5052241;28;20182;-72
2021/12/01 11:03:51;;;;;;;3.67;3.47;;;19.80;56.00;;;;;;5054886;28;20179;-73
2021/12/01 11:06:20;;;;;;;2.95;2.75;;;20.00;55.50;;;;;;5055736;28;20195;-73
2021/12/01 11:08:58;;;;;;;4.80;4.40;;;20.00;54.10;;;;;;5052471;28;20203;-72
2021/12/01 11:11:34;;;;;;;5.18;4.68;;;19.90;53.00;;;;;;5057276;28;20180;-73
2021/12/01 11:14:13;;;;;;;5.15;4.65;;;19.70;54.10;;;;;;5053249;28;20695;-73
2021/12/01 11:16:40;;;;;;;5.95;5.45;;;19.50;54.20;;;;;;5056706;28;20175;-73
2021/12/01 11:19:07;;;;;;;6.13;5.53;;;19.60;55.50;;;;;;5052106;28;20202;-73
2021/12/01 11:21:33;;;;;;;6.40;5.43;;;19.60;55.10;;;;;;5053741;28;20259;-73
2021/12/01 11:24:04;;;;;;;5.95;5.30;;;19.60;54.90;;;;;;5054227;28;20279;-73
2021/12/01 11:26:32;;;;;;;6.35;5.55;;;19.70;55.10;;;;;;5053739;28;20306;-73
2021/12/01 11:29:08;;;;;;;6.03;5.47;;;19.70;53.00;;;;;;5054324;28;20193;-75
2021/12/01 11:31:46;;;;;;;6.20;5.00;;;19.60;54.10;;;;;;5057712;28;20179;-73
2021/12/01 11:34:14;;;;;;;8.45;5.70;;;19.70;53.90;;;;;;5054208;28;20687;-73
2021/12/01 11:36:46;;;;;;;5.22;4.70;;;19.60;54.10;;;;;;5051712;28;20188;-73
2021/12/01 11:39:17;;;;;;;3.90;3.55;;;19.60;54.90;;;;;;5056489;28;20184;-75
2021/12/01 11:41:43;;;;;;;4.78;3.90;;;19.70;55.00;;;;;;5056464;28;20679;-73
2021/12/01 11:44:11;;;;;;;8.13;3.67;;;19.70;54.20;;;;;;5055509;28;20191;-74
2021/12/01 11:46:37;;;;;;;4.15;3.50;;;19.70;54.20;;;;;;5055696;28;20239;-75
2021/12/01 11:49:08;;;;;;;4.32;3.28;;;19.70;54.60;;;;;;5062032;28;20627;-75
2021/12/01 11:51:40;;;;;;;3.17;3.00;;;19.90;55.30;;;;;;5055077;28;20176;-75
2021/12/01 11:54:11;;;;;;;3.17;2.88;;;20.00;54.50;;;;;;5057932;28;20194;-75
2021/12/01 11:56:37;;;;;;;3.30;2.97;;;20.10;54.50;;;;;;5049566;28;20179;-74
2021/12/01 11:59:15;;;;;;;5.15;3.05;;;20.10;53.20;;;;;;5054230;28;20188;-74
2021/12/01 12:01:49;;;;;;;3.17;2.63;;;20.10;53.10;;;;;;5057621;28;20240;-75
2021/12/01 12:04:17;;;;;;;2.58;2.38;;;19.80;53.70;;;;;;5059766;28;20266;-74
2021/12/01 12:07:01;;;;;;;3.15;2.05;;;19.70;55.20;;;;;;5055817;28;20214;-75
2021/12/01 12:09:28;;;;;;;2.38;2.08;;;19.60;54.10;;;;;;5057308;28;20241;-75
2021/12/01 12:12:00;;;;;;;4.70;2.17;;;19.70;54.80;;;;;;5051303;28;20179;-75
2021/12/01 12:14:31;;;;;;;2.05;1.98;;;19.60;53.70;;;;;;5047681;28;20194;-75
2021/12/01 12:17:08;;;;;;;3.45;2.60;;;19.30;53.90;;;;;;5052193;28;20187;-75
2021/12/01 12:19:46;;;;;;;2.28;2.08;;;18.50;53.00;;;;;;5045014;28;20571;-75
2021/12/01 12:22:14;;;;;;;0.80;0.70;;;17.90;52.70;;;;;;5053641;28;20247;-75
2021/12/01 12:24:47;;;;;;;0.43;0.43;;;17.40;52.00;;;;;;5047592;28;20688;-75
2021/12/01 12:27:35;;;;;;;0.43;0.43;;;16.60;51.60;;;;;;5044074;28;20219;-74
2021/12/01 12:30:23;;;;;;;0.40;0.40;;;16.20;54.30;;;;;;5046713;28;20192;-73
2021/12/01 12:33:09;;;;;;;2.33;0.40;;;16.00;53.70;;;;;;5050936;28;20215;-76
2021/12/01 12:35:42;;;;;;;0.47;0.47;;;15.40;55.10;;;;;;5053333;28;20179;-77
2021/12/01 12:38:08;;;;;;;0.40;0.40;;;15.00;56.30;;;;;;5044481;28;20179;-74
2021/12/01 12:40:34;;;;;;;0.20;0.20;;;14.60;54.80;;;;;;5043522;28;20635;-73
2021/12/01 12:43:21;;;;;;;0.20;0.20;;;14.20;55.60;;;;;;5050385;28;20239;-73
2021/12/01 12:46:01;;;;;;;0.30;0.30;;;13.80;55.80;;;;;;5048247;28;20283;-74
2021/12/01 12:48:39;;;;;;;0.73;0.30;;;13.60;57.40;;;;;;5049454;28;20243;-73
2021/12/01 12:51:06;;;;;;;0.40;0.40;;;13.60;57.90;;;;;;5047531;28;20574;-72
2021/12/01 12:53:31;;;;;;;0.22;0.22;;;13.80;58.30;;;;;;5051439;28;20171;-73
2021/12/01 12:55:57;;;;;;;0.43;0.43;;;13.80;57.50;;;;;;5054201;28;20192;-73
2021/12/01 12:58:37;;;;;;;0.47;0.47;;;13.70;57.70;;;;;;5049071;28;20203;-74
2021/12/01 13:01:03;;;;;;;0.20;0.20;;;13.60;58.50;;;;;;5052744;28;20171;-76